sensor_id;sensor_type;location;lat;lon;timestamp;P1;durP1;ratioP1;P2;durP2;ratioP2
59880;SDS011;45751;51.380;10.326;2022-08-21T00:00:18;10.75;;;4.88;;
59880;SDS011;45751;51.380;10.326;2022-08-21T00:02:50;10.77;;;5.07;;
59880;SDS011;45751;51.380;10.326;2022-08-21T00:05:21;12.88;;;5.88;;
59880;SDS011;45751;51.380;10.326;2022-08-21T00:07:49;12.07;;;5.57;;
59880;SDS011;45751;51.380;10.326;2022-08-21T00:10:18;13.13;;;5.97;;
59880;SDS011;45751;51.380;10.326;2022-08-21T00:12:46;13.77;;;5.82;;
59880;SDS011;45751;51.380;10.326;2022-08-21T00:15:15;10.43;;;4.45;;
59880;SDS011;45751;51.380;10.326;2022-08-21T00:17:46;12.27;;;5.97;;
59880;SDS011;45751;51.380;10.326;2022-08-21T00:20:13;12.30;;;5.03;;
59880;SDS011;45751;51.380;10.326;2022-08-21T00:22:42;11.98;;;4.70;;
59880;SDS011;45751;51.380;10.326;2022-08-21T00:25:10;10.13;;;4.45;;
59880;SDS011;45751;51.380;10.326;2022-08-21T00:27:37;11.05;;;4.43;;
59880;SDS011;45751;51.380;10.326;2022-08-21T00:30:05;11.23;;;4.72;;
59880;SDS011;45751;51.380;10.326;2022-08-21T00:32:33;10.73;;;4.20;;
59880;SDS011;45751;51.380;10.326;2022-08-21T00:35:00;10.95;;;4.88;;
59880;SDS011;45751;51.380;10.326;2022-08-21T00:37:27;10.93;;;4.95;;
59880;SDS011;45751;51.380;10.326;2022-08-21T00:39:55;12.55;;;5.55;;
59880;SDS011;45751;51.380;10.326;2022-08-21T00:42:23;11.80;;;4.85;;
59880;SDS011;45751;51.380;10.326;2022-08-21T00:44:50;15.52;;;6.80;;
59880;SDS011;45751;51.380;10.326;2022-08-21T00:47:18;10.82;;;4.70;;
59880;SDS011;45751;51.380;10.326;2022-08-21T00:49:45;12.75;;;5.80;;
59880;SDS011;45751;51.380;10.326;2022-08-21T00:52:14;14.43;;;5.45;;
59880;SDS011;45751;51.380;10.326;2022-08-21T00:54:45;11.13;;;5.22;;
59880;SDS011;45751;51.380;10.326;2022-08-21T00:57:27;11.60;;;6.00;;
59880;SDS011;45751;51.380;10.326;2022-08-21T00:59:58;10.95;;;5.25;;
59880;SDS011;45751;51.380;10.326;2022-08-21T01:02:27;12.25;;;5.25;;
59880;SDS011;45751;51.380;10.326;2022-08-21T01:04:56;10.32;;;4.95;;
59880;SDS011;45751;51.380;10.326;2022-08-21T01:07:24;12.98;;;5.93;;
59880;SDS011;45751;51.380;10.326;2022-08-21T01:10:12;14.15;;;6.47;;
59880;SDS011;45751;51.380;10.326;2022-08-21T01:12:50;16.42;;;7.07;;
59880;SDS011;45751;51.380;10.326;2022-08-21T01:15:19;15.32;;;6.70;;
59880;SDS011;45751;51.380;10.326;2022-08-21T01:17:49;12.93;;;6.10;;
59880;SDS011;45751;51.380;10.326;2022-08-21T01:20:17;13.77;;;6.10;;
59880;SDS011;45751;51.380;10.326;2022-08-21T01:22:44;12.13;;;5.65;;
59880;SDS011;45751;51.380;10.326;2022-08-21T01:25:12;11.50;;;5.45;;
59880;SDS011;45751;51.380;10.326;2022-08-21T01:27:41;11.33;;;5.37;;
59880;SDS011;45751;51.380;10.326;2022-08-21T01:30:10;11.15;;;5.70;;
59880;SDS011;45751;51.380;10.326;2022-08-21T01:32:43;11.00;;;5.18;;
59880;SDS011;45751;51.380;10.326;2022-08-21T01:35:11;11.40;;;5.50;;
59880;SDS011;45751;51.380;10.326;2022-08-21T01:37:38;12.27;;;5.93;;
59880;SDS011;45751;51.380;10.326;2022-08-21T01:40:06;10.85;;;5.07;;
59880;SDS011;45751;51.380;10.326;2022-08-21T01:42:34;11.25;;;4.88;;
59880;SDS011;45751;51.380;10.326;2022-08-21T01:45:02;9.35;;;4.60;;
59880;SDS011;45751;51.380;10.326;2022-08-21T01:47:30;9.80;;;4.78;;
59880;SDS011;45751;51.380;10.326;2022-08-21T01:49:57;12.80;;;4.78;;
59880;SDS011;45751;51.380;10.326;2022-08-21T01:52:25;11.05;;;4.72;;
59880;SDS011;45751;51.380;10.326;2022-08-21T01:54:52;10.93;;;4.55;;
59880;SDS011;45751;51.380;10.326;2022-08-21T01:57:21;10.07;;;4.40;;
59880;SDS011;45751;51.380;10.326;2022-08-21T01:59:51;9.65;;;4.50;;
59880;SDS011;45751;51.380;10.326;2022-08-21T02:02:19;8.88;;;4.38;;
59880;SDS011;45751;51.380;10.326;2022-08-21T02:04:46;8.20;;;3.75;;
59880;SDS011;45751;51.380;10.326;2022-08-21T02:07:13;9.48;;;3.72;;
59880;SDS011;45751;51.380;10.326;2022-08-21T02:09:39;10.27;;;3.83;;
59880;SDS011;45751;51.380;10.326;2022-08-21T02:12:09;8.30;;;3.65;;
59880;SDS011;45751;51.380;10.326;2022-08-21T02:14:36;9.75;;;3.60;;
59880;SDS011;45751;51.380;10.326;2022-08-21T02:17:04;8.98;;;4.32;;
59880;SDS011;45751;51.380;10.326;2022-08-21T02:19:35;8.77;;;3.45;;
59880;SDS011;45751;51.380;10.326;2022-08-21T02:24:36;8.50;;;3.88;;
59880;SDS011;45751;51.380;10.326;2022-08-21T02:27:21;8.38;;;3.85;;
59880;SDS011;45751;51.380;10.326;2022-08-21T02:29:53;8.45;;;3.88;;
59880;SDS011;45751;51.380;10.326;2022-08-21T02:32:23;8.88;;;3.80;;
59880;SDS011;45751;51.380;10.326;2022-08-21T02:34:50;8.27;;;3.55;;
59880;SDS011;45751;51.380;10.326;2022-08-21T02:37:18;9.63;;;3.97;;
59880;SDS011;45751;51.380;10.326;2022-08-21T02:39:45;8.02;;;3.60;;
59880;SDS011;45751;51.380;10.326;2022-08-21T02:42:12;8.55;;;3.63;;
59880;SDS011;45751;51.380;10.326;2022-08-21T02:44:39;9.00;;;4.00;;
59880;SDS011;45751;51.380;10.326;2022-08-21T02:47:06;10.05;;;3.63;;
59880;SDS011;45751;51.380;10.326;2022-08-21T02:49:33;7.88;;;3.58;;
59880;SDS011;45751;51.380;10.326;2022-08-21T02:52:00;8.25;;;3.58;;
59880;SDS011;45751;51.380;10.326;2022-08-21T02:54:26;8.57;;;3.67;;
59880;SDS011;45751;51.380;10.326;2022-08-21T02:56:53;7.18;;;3.45;;
59880;SDS011;45751;51.380;10.326;2022-08-21T02:59:20;8.32;;;3.40;;
59880;SDS011;45751;51.380;10.326;2022-08-21T03:01:47;8.18;;;3.45;;
59880;SDS011;45751;51.380;10.326;2022-08-21T03:04:14;8.50;;;3.30;;
59880;SDS011;45751;51.380;10.326;2022-08-21T03:06:41;8.70;;;3.78;;
59880;SDS011;45751;51.380;10.326;2022-08-21T03:09:08;8.93;;;3.70;;
59880;SDS011;45751;51.380;10.326;2022-08-21T03:11:34;8.85;;;3.40;;
59880;SDS011;45751;51.380;10.326;2022-08-21T03:14:02;9.00;;;4.10;;
59880;SDS011;45751;51.380;10.326;2022-08-21T03:16:29;9.40;;;4.40;;
59880;SDS011;45751;51.380;10.326;2022-08-21T03:19:00;13.50;;;5.07;;
59880;SDS011;45751;51.380;10.326;2022-08-21T03:21:27;16.83;;;6.00;;
59880;SDS011;45751;51.380;10.326;2022-08-21T03:23:54;11.82;;;5.05;;
59880;SDS011;45751;51.380;10.326;2022-08-21T03:26:21;14.95;;;5.85;;
59880;SDS011;45751;51.380;10.326;2022-08-21T03:28:48;11.85;;;4.97;;
59880;SDS011;45751;51.380;10.326;2022-08-21T03:31:16;12.27;;;5.63;;
59880;SDS011;45751;51.380;10.326;2022-08-21T03:33:44;11.30;;;5.20;;
59880;SDS011;45751;51.380;10.326;2022-08-21T03:36:11;14.63;;;5.18;;
59880;SDS011;45751;51.380;10.326;2022-08-21T03:38:38;15.45;;;5.28;;
59880;SDS011;45751;51.380;10.326;2022-08-21T03:41:05;12.15;;;5.13;;
59880;SDS011;45751;51.380;10.326;2022-08-21T03:43:33;11.80;;;4.88;;
59880;SDS011;45751;51.380;10.326;2022-08-21T03:46:02;16.00;;;6.13;;
59880;SDS011;45751;51.380;10.326;2022-08-21T03:48:29;14.43;;;6.53;;
59880;SDS011;45751;51.380;10.326;2022-08-21T03:50:56;12.70;;;5.75;;
59880;SDS011;45751;51.380;10.326;2022-08-21T03:53:23;14.27;;;6.30;;
59880;SDS011;45751;51.380;10.326;2022-08-21T03:55:51;13.57;;;5.85;;
59880;SDS011;45751;51.380;10.326;2022-08-21T03:58:20;14.95;;;6.15;;
59880;SDS011;45751;51.380;10.326;2022-08-21T04:00:50;14.77;;;6.75;;
59880;SDS011;45751;51.380;10.326;2022-08-21T04:03:20;16.23;;;6.13;;
59880;SDS011;45751;51.380;10.326;2022-08-21T04:05:47;12.40;;;6.10;;
59880;SDS011;45751;51.380;10.326;2022-08-21T04:08:15;13.10;;;5.93;;
59880;SDS011;45751;51.380;10.326;2022-08-21T04:10:46;13.65;;;6.13;;
59880;SDS011;45751;51.380;10.326;2022-08-21T04:13:15;11.18;;;5.07;;
59880;SDS011;45751;51.380;10.326;2022-08-21T04:15:42;12.90;;;5.72;;
59880;SDS011;45751;51.380;10.326;2022-08-21T04:18:09;12.77;;;5.85;;
59880;SDS011;45751;51.380;10.326;2022-08-21T04:20:37;12.40;;;5.95;;
59880;SDS011;45751;51.380;10.326;2022-08-21T04:23:04;12.20;;;5.40;;
59880;SDS011;45751;51.380;10.326;2022-08-21T04:25:32;11.80;;;5.32;;
59880;SDS011;45751;51.380;10.326;2022-08-21T04:27:58;10.95;;;5.38;;
59880;SDS011;45751;51.380;10.326;2022-08-21T04:30:25;11.40;;;5.03;;
59880;SDS011;45751;51.380;10.326;2022-08-21T04:32:54;10.68;;;4.70;;
59880;SDS011;45751;51.380;10.326;2022-08-21T04:35:24;12.47;;;5.33;;
59880;SDS011;45751;51.380;10.326;2022-08-21T04:37:52;9.77;;;4.30;;
59880;SDS011;45751;51.380;10.326;2022-08-21T04:40:20;11.43;;;4.82;;
59880;SDS011;45751;51.380;10.326;2022-08-21T04:42:49;12.13;;;4.95;;
59880;SDS011;45751;51.380;10.326;2022-08-21T04:45:19;11.85;;;4.93;;
59880;SDS011;45751;51.380;10.326;2022-08-21T04:47:47;9.50;;;4.13;;
59880;SDS011;45751;51.380;10.326;2022-08-21T04:50:19;11.38;;;5.00;;
59880;SDS011;45751;51.380;10.326;2022-08-21T04:53:02;10.50;;;5.00;;
59880;SDS011;45751;51.380;10.326;2022-08-21T04:55:31;11.68;;;4.88;;
59880;SDS011;45751;51.380;10.326;2022-08-21T04:57:58;10.75;;;4.32;;
59880;SDS011;45751;51.380;10.326;2022-08-21T05:00:26;12.07;;;4.78;;
59880;SDS011;45751;51.380;10.326;2022-08-21T05:02:53;10.82;;;5.38;;
59880;SDS011;45751;51.380;10.326;2022-08-21T05:05:23;12.40;;;5.27;;
59880;SDS011;45751;51.380;10.326;2022-08-21T05:07:50;12.80;;;6.32;;
59880;SDS011;45751;51.380;10.326;2022-08-21T05:10:19;11.82;;;5.13;;
59880;SDS011;45751;51.380;10.326;2022-08-21T05:12:46;14.00;;;6.60;;
59880;SDS011;45751;51.380;10.326;2022-08-21T05:15:13;14.60;;;6.40;;
59880;SDS011;45751;51.380;10.326;2022-08-21T05:17:41;12.38;;;6.00;;
59880;SDS011;45751;51.380;10.326;2022-08-21T05:20:08;11.90;;;5.28;;
59880;SDS011;45751;51.380;10.326;2022-08-21T05:22:36;14.20;;;6.47;;
59880;SDS011;45751;51.380;10.326;2022-08-21T05:25:04;12.70;;;6.18;;
59880;SDS011;45751;51.380;10.326;2022-08-21T05:27:36;13.70;;;6.28;;
59880;SDS011;45751;51.380;10.326;2022-08-21T05:30:07;14.32;;;6.90;;
59880;SDS011;45751;51.380;10.326;2022-08-21T05:32:35;13.20;;;6.07;;
59880;SDS011;45751;51.380;10.326;2022-08-21T05:35:05;13.45;;;6.80;;
59880;SDS011;45751;51.380;10.326;2022-08-21T05:37:33;11.02;;;5.43;;
59880;SDS011;45751;51.380;10.326;2022-08-21T05:40:00;14.10;;;6.70;;
59880;SDS011;45751;51.380;10.326;2022-08-21T05:42:51;12.20;;;5.82;;
59880;SDS011;45751;51.380;10.326;2022-08-21T05:45:23;13.80;;;6.72;;
59880;SDS011;45751;51.380;10.326;2022-08-21T05:48:18;14.88;;;6.30;;
59880;SDS011;45751;51.380;10.326;2022-08-21T05:50:47;11.95;;;5.53;;
59880;SDS011;45751;51.380;10.326;2022-08-21T05:53:16;13.32;;;6.10;;
59880;SDS011;45751;51.380;10.326;2022-08-21T05:55:45;13.30;;;6.38;;
59880;SDS011;45751;51.380;10.326;2022-08-21T05:58:13;11.90;;;5.88;;
59880;SDS011;45751;51.380;10.326;2022-08-21T06:00:41;11.52;;;5.50;;
59880;SDS011;45751;51.380;10.326;2022-08-21T06:03:26;12.60;;;6.25;;
59880;SDS011;45751;51.380;10.326;2022-08-21T06:05:54;11.38;;;5.60;;
59880;SDS011;45751;51.380;10.326;2022-08-21T06:08:22;10.90;;;6.05;;
59880;SDS011;45751;51.380;10.326;2022-08-21T06:10:49;12.77;;;5.75;;
59880;SDS011;45751;51.380;10.326;2022-08-21T06:13:18;12.38;;;5.80;;
59880;SDS011;45751;51.380;10.326;2022-08-21T06:15:46;11.48;;;5.60;;
59880;SDS011;45751;51.380;10.326;2022-08-21T06:18:13;13.35;;;6.22;;
59880;SDS011;45751;51.380;10.326;2022-08-21T06:20:41;12.15;;;6.13;;
59880;SDS011;45751;51.380;10.326;2022-08-21T06:23:08;13.23;;;6.75;;
59880;SDS011;45751;51.380;10.326;2022-08-21T06:25:35;13.88;;;6.25;;
59880;SDS011;45751;51.380;10.326;2022-08-21T06:28:06;15.10;;;6.47;;
59880;SDS011;45751;51.380;10.326;2022-08-21T06:30:35;15.73;;;7.28;;
59880;SDS011;45751;51.380;10.326;2022-08-21T06:33:03;16.45;;;7.22;;
59880;SDS011;45751;51.380;10.326;2022-08-21T06:35:30;15.55;;;8.00;;
59880;SDS011;45751;51.380;10.326;2022-08-21T06:37:57;14.85;;;7.93;;
59880;SDS011;45751;51.380;10.326;2022-08-21T06:40:25;14.77;;;7.05;;
59880;SDS011;45751;51.380;10.326;2022-08-21T06:42:56;14.18;;;7.35;;
59880;SDS011;45751;51.380;10.326;2022-08-21T06:45:32;14.95;;;7.30;;
59880;SDS011;45751;51.380;10.326;2022-08-21T06:47:59;15.65;;;7.32;;
59880;SDS011;45751;51.380;10.326;2022-08-21T06:50:25;16.77;;;7.40;;
59880;SDS011;45751;51.380;10.326;2022-08-21T06:53:03;18.20;;;7.45;;
59880;SDS011;45751;51.380;10.326;2022-08-21T06:55:36;14.20;;;6.57;;
59880;SDS011;45751;51.380;10.326;2022-08-21T06:58:04;13.32;;;6.72;;
59880;SDS011;45751;51.380;10.326;2022-08-21T07:00:31;13.43;;;6.20;;
59880;SDS011;45751;51.380;10.326;2022-08-21T07:02:59;13.73;;;5.90;;
59880;SDS011;45751;51.380;10.326;2022-08-21T07:05:26;18.17;;;6.88;;
59880;SDS011;45751;51.380;10.326;2022-08-21T07:07:55;11.73;;;6.35;;
59880;SDS011;45751;51.380;10.326;2022-08-21T07:10:23;12.90;;;6.82;;
59880;SDS011;45751;51.380;10.326;2022-08-21T07:12:52;13.20;;;6.63;;
59880;SDS011;45751;51.380;10.326;2022-08-21T07:15:27;11.88;;;5.13;;
59880;SDS011;45751;51.380;10.326;2022-08-21T07:17:56;10.60;;;5.35;;
59880;SDS011;45751;51.380;10.326;2022-08-21T07:20:23;14.05;;;5.25;;
59880;SDS011;45751;51.380;10.326;2022-08-21T07:22:50;14.38;;;5.00;;
59880;SDS011;45751;51.380;10.326;2022-08-21T07:25:17;10.20;;;4.70;;
59880;SDS011;45751;51.380;10.326;2022-08-21T07:27:44;14.05;;;4.93;;
59880;SDS011;45751;51.380;10.326;2022-08-21T07:30:11;13.18;;;5.57;;
59880;SDS011;45751;51.380;10.326;2022-08-21T07:32:38;14.32;;;5.43;;
59880;SDS011;45751;51.380;10.326;2022-08-21T07:35:05;16.02;;;6.75;;
59880;SDS011;45751;51.380;10.326;2022-08-21T07:37:33;13.57;;;6.28;;
59880;SDS011;45751;51.380;10.326;2022-08-21T07:40:00;14.32;;;6.57;;
59880;SDS011;45751;51.380;10.326;2022-08-21T07:42:27;15.00;;;7.05;;
59880;SDS011;45751;51.380;10.326;2022-08-21T07:44:54;14.20;;;6.50;;
59880;SDS011;45751;51.380;10.326;2022-08-21T07:47:22;16.13;;;7.15;;
59880;SDS011;45751;51.380;10.326;2022-08-21T07:50:07;13.00;;;6.18;;
59880;SDS011;45751;51.380;10.326;2022-08-21T07:52:34;15.43;;;7.07;;
59880;SDS011;45751;51.380;10.326;2022-08-21T07:55:01;13.93;;;5.70;;
59880;SDS011;45751;51.380;10.326;2022-08-21T07:57:32;20.20;;;9.63;;
59880;SDS011;45751;51.380;10.326;2022-08-21T07:59:59;27.73;;;11.82;;
59880;SDS011;45751;51.380;10.326;2022-08-21T08:02:27;19.23;;;7.53;;
59880;SDS011;45751;51.380;10.326;2022-08-21T08:05:02;13.45;;;5.82;;
59880;SDS011;45751;51.380;10.326;2022-08-21T08:07:30;9.73;;;4.47;;
59880;SDS011;45751;51.380;10.326;2022-08-21T08:09:58;13.45;;;5.70;;
59880;SDS011;45751;51.380;10.326;2022-08-21T08:12:25;12.27;;;5.82;;
59880;SDS011;45751;51.380;10.326;2022-08-21T08:14:58;11.10;;;4.93;;
59880;SDS011;45751;51.380;10.326;2022-08-21T08:19:53;11.52;;;4.78;;
59880;SDS011;45751;51.380;10.326;2022-08-21T08:22:21;13.77;;;5.47;;
59880;SDS011;45751;51.380;10.326;2022-08-21T08:24:50;11.80;;;5.10;;
59880;SDS011;45751;51.380;10.326;2022-08-21T08:27:18;11.32;;;4.20;;
59880;SDS011;45751;51.380;10.326;2022-08-21T08:29:45;10.73;;;4.43;;
59880;SDS011;45751;51.380;10.326;2022-08-21T08:32:13;10.50;;;4.60;;
59880;SDS011;45751;51.380;10.326;2022-08-21T08:34:40;11.05;;;4.85;;
59880;SDS011;45751;51.380;10.326;2022-08-21T08:37:08;9.50;;;3.70;;
59880;SDS011;45751;51.380;10.326;2022-08-21T08:39:36;10.02;;;4.45;;
59880;SDS011;45751;51.380;10.326;2022-08-21T08:42:07;14.50;;;4.72;;
59880;SDS011;45751;51.380;10.326;2022-08-21T08:45:00;11.45;;;4.55;;
59880;SDS011;45751;51.380;10.326;2022-08-21T08:47:35;9.07;;;3.47;;
59880;SDS011;45751;51.380;10.326;2022-08-21T08:50:12;11.00;;;3.40;;
59880;SDS011;45751;51.380;10.326;2022-08-21T08:52:46;10.63;;;4.28;;
59880;SDS011;45751;51.380;10.326;2022-08-21T08:55:21;9.68;;;3.53;;
59880;SDS011;45751;51.380;10.326;2022-08-21T08:57:54;9.75;;;4.00;;
59880;SDS011;45751;51.380;10.326;2022-08-21T09:00:22;10.18;;;3.67;;
59880;SDS011;45751;51.380;10.326;2022-08-21T09:02:51;11.23;;;3.78;;
59880;SDS011;45751;51.380;10.326;2022-08-21T09:05:31;10.77;;;3.67;;
59880;SDS011;45751;51.380;10.326;2022-08-21T09:16:17;10.35;;;3.40;;
59880;SDS011;45751;51.380;10.326;2022-08-21T09:19:09;18.25;;;3.75;;
59880;SDS011;45751;51.380;10.326;2022-08-21T09:24:31;11.55;;;3.15;;
59880;SDS011;45751;51.380;10.326;2022-08-21T09:27:10;10.40;;;2.95;;
59880;SDS011;45751;51.380;10.326;2022-08-21T09:29:40;12.18;;;4.05;;
59880;SDS011;45751;51.380;10.326;2022-08-21T09:32:11;11.15;;;3.55;;
59880;SDS011;45751;51.380;10.326;2022-08-21T09:37:52;8.95;;;4.10;;
59880;SDS011;45751;51.380;10.326;2022-08-21T09:40:26;14.43;;;5.10;;
59880;SDS011;45751;51.380;10.326;2022-08-21T09:45:43;13.85;;;4.78;;
59880;SDS011;45751;51.380;10.326;2022-08-21T09:50:40;12.00;;;5.32;;
59880;SDS011;45751;51.380;10.326;2022-08-21T09:53:42;13.23;;;5.28;;
59880;SDS011;45751;51.380;10.326;2022-08-21T09:56:28;11.73;;;5.00;;
59880;SDS011;45751;51.380;10.326;2022-08-21T09:59:18;11.77;;;5.03;;
59880;SDS011;45751;51.380;10.326;2022-08-21T10:02:22;13.32;;;4.68;;
59880;SDS011;45751;51.380;10.326;2022-08-21T10:04:57;12.85;;;4.20;;
59880;SDS011;45751;51.380;10.326;2022-08-21T10:07:28;10.00;;;4.35;;
59880;SDS011;45751;51.380;10.326;2022-08-21T10:10:04;12.77;;;4.25;;
59880;SDS011;45751;51.380;10.326;2022-08-21T10:15:24;10.18;;;3.75;;
59880;SDS011;45751;51.380;10.326;2022-08-21T10:18:10;13.05;;;4.40;;
59880;SDS011;45751;51.380;10.326;2022-08-21T10:20:49;9.68;;;4.30;;
59880;SDS011;45751;51.380;10.326;2022-08-21T10:32:04;12.93;;;4.68;;
59880;SDS011;45751;51.380;10.326;2022-08-21T10:45:23;15.50;;;5.03;;
59880;SDS011;45751;51.380;10.326;2022-08-21T10:47:59;9.93;;;4.50;;
59880;SDS011;45751;51.380;10.326;2022-08-21T10:50:31;15.52;;;5.30;;
59880;SDS011;45751;51.380;10.326;2022-08-21T10:53:19;9.23;;;4.60;;
59880;SDS011;45751;51.380;10.326;2022-08-21T10:58:26;10.55;;;4.80;;
59880;SDS011;45751;51.380;10.326;2022-08-21T11:00:58;12.45;;;4.45;;
59880;SDS011;45751;51.380;10.326;2022-08-21T11:03:35;11.20;;;4.80;;
59880;SDS011;45751;51.380;10.326;2022-08-21T11:08:45;13.07;;;4.15;;
59880;SDS011;45751;51.380;10.326;2022-08-21T11:11:22;10.48;;;3.95;;
59880;SDS011;45751;51.380;10.326;2022-08-21T11:14:08;10.68;;;4.90;;
59880;SDS011;45751;51.380;10.326;2022-08-21T11:16:53;11.57;;;4.40;;
59880;SDS011;45751;51.380;10.326;2022-08-21T11:19:32;14.52;;;4.65;;
59880;SDS011;45751;51.380;10.326;2022-08-21T11:24:43;14.63;;;4.45;;
59880;SDS011;45751;51.380;10.326;2022-08-21T11:30:02;11.07;;;4.47;;
59880;SDS011;45751;51.380;10.326;2022-08-21T11:38:10;8.38;;;3.75;;
59880;SDS011;45751;51.380;10.326;2022-08-21T11:41:02;9.40;;;3.95;;
59880;SDS011;45751;51.380;10.326;2022-08-21T11:43:41;11.15;;;4.35;;
59880;SDS011;45751;51.380;10.326;2022-08-21T11:49:28;8.35;;;3.22;;
59880;SDS011;45751;51.380;10.326;2022-08-21T11:52:39;9.25;;;3.65;;
59880;SDS011;45751;51.380;10.326;2022-08-21T11:55:12;11.23;;;3.80;;
59880;SDS011;45751;51.380;10.326;2022-08-21T11:58:05;11.85;;;4.28;;
59880;SDS011;45751;51.380;10.326;2022-08-21T12:00:52;13.98;;;4.13;;
59880;SDS011;45751;51.380;10.326;2022-08-21T12:04:04;9.98;;;3.83;;
59880;SDS011;45751;51.380;10.326;2022-08-21T12:06:38;9.10;;;3.78;;
59880;SDS011;45751;51.380;10.326;2022-08-21T12:12:05;8.70;;;3.88;;
59880;SDS011;45751;51.380;10.326;2022-08-21T12:15:04;10.93;;;3.60;;
59880;SDS011;45751;51.380;10.326;2022-08-21T12:17:57;9.85;;;3.63;;
59880;SDS011;45751;51.380;10.326;2022-08-21T12:20:38;7.93;;;3.30;;
59880;SDS011;45751;51.380;10.326;2022-08-21T12:23:24;9.45;;;3.30;;
59880;SDS011;45751;51.380;10.326;2022-08-21T12:28:47;9.60;;;3.63;;
59880;SDS011;45751;51.380;10.326;2022-08-21T12:31:18;8.80;;;3.17;;
59880;SDS011;45751;51.380;10.326;2022-08-21T12:33:51;9.18;;;3.80;;
59880;SDS011;45751;51.380;10.326;2022-08-21T12:36:26;12.05;;;3.40;;
59880;SDS011;45751;51.380;10.326;2022-08-21T12:39:09;8.60;;;3.17;;
59880;SDS011;45751;51.380;10.326;2022-08-21T12:41:47;8.18;;;3.15;;
59880;SDS011;45751;51.380;10.326;2022-08-21T12:44:20;12.23;;;3.67;;
59880;SDS011;45751;51.380;10.326;2022-08-21T12:47:05;11.57;;;3.03;;
59880;SDS011;45751;51.380;10.326;2022-08-21T12:49:43;10.85;;;3.70;;
59880;SDS011;45751;51.380;10.326;2022-08-21T12:52:24;9.75;;;3.10;;
59880;SDS011;45751;51.380;10.326;2022-08-21T12:54:54;9.35;;;3.22;;
59880;SDS011;45751;51.380;10.326;2022-08-21T12:57:22;8.35;;;3.00;;
59880;SDS011;45751;51.380;10.326;2022-08-21T12:59:56;9.18;;;3.50;;
59880;SDS011;45751;51.380;10.326;2022-08-21T13:02:35;9.00;;;3.63;;
59880;SDS011;45751;51.380;10.326;2022-08-21T13:05:06;9.05;;;2.80;;
59880;SDS011;45751;51.380;10.326;2022-08-21T13:07:42;9.23;;;3.30;;
59880;SDS011;45751;51.380;10.326;2022-08-21T13:10:14;7.15;;;3.17;;
59880;SDS011;45751;51.380;10.326;2022-08-21T13:12:45;7.60;;;3.53;;
59880;SDS011;45751;51.380;10.326;2022-08-21T13:15:13;8.05;;;3.35;;
59880;SDS011;45751;51.380;10.326;2022-08-21T13:17:42;8.50;;;3.22;;
59880;SDS011;45751;51.380;10.326;2022-08-21T13:22:51;8.73;;;2.75;;
59880;SDS011;45751;51.380;10.326;2022-08-21T13:25:19;7.75;;;3.05;;
59880;SDS011;45751;51.380;10.326;2022-08-21T13:28:04;7.70;;;3.05;;
59880;SDS011;45751;51.380;10.326;2022-08-21T13:30:58;7.85;;;3.05;;
59880;SDS011;45751;51.380;10.326;2022-08-21T13:33:25;7.15;;;2.78;;
59880;SDS011;45751;51.380;10.326;2022-08-21T13:38:32;6.68;;;2.78;;
59880;SDS011;45751;51.380;10.326;2022-08-21T13:41:02;9.88;;;3.63;;
59880;SDS011;45751;51.380;10.326;2022-08-21T13:43:43;8.95;;;3.20;;
59880;SDS011;45751;51.380;10.326;2022-08-21T13:46:24;8.50;;;2.83;;
59880;SDS011;45751;51.380;10.326;2022-08-21T13:48:53;9.75;;;2.75;;
59880;SDS011;45751;51.380;10.326;2022-08-21T13:51:21;11.30;;;2.80;;
59880;SDS011;45751;51.380;10.326;2022-08-21T13:53:49;8.55;;;2.70;;
59880;SDS011;45751;51.380;10.326;2022-08-21T13:56:27;6.68;;;2.60;;
59880;SDS011;45751;51.380;10.326;2022-08-21T13:59:07;9.90;;;2.78;;
59880;SDS011;45751;51.380;10.326;2022-08-21T14:01:38;6.93;;;2.53;;
59880;SDS011;45751;51.380;10.326;2022-08-21T14:04:20;7.30;;;2.63;;
59880;SDS011;45751;51.380;10.326;2022-08-21T14:06:50;10.15;;;3.30;;
59880;SDS011;45751;51.380;10.326;2022-08-21T14:12:04;10.63;;;3.00;;
59880;SDS011;45751;51.380;10.326;2022-08-21T14:14:49;8.95;;;2.40;;
59880;SDS011;45751;51.380;10.326;2022-08-21T14:17:33;7.88;;;2.67;;
59880;SDS011;45751;51.380;10.326;2022-08-21T14:20:04;7.45;;;2.20;;
59880;SDS011;45751;51.380;10.326;2022-08-21T14:22:41;7.32;;;2.00;;
59880;SDS011;45751;51.380;10.326;2022-08-21T14:25:15;6.72;;;2.20;;
59880;SDS011;45751;51.380;10.326;2022-08-21T14:30:54;7.18;;;2.28;;
59880;SDS011;45751;51.380;10.326;2022-08-21T14:33:26;6.70;;;2.20;;
59880;SDS011;45751;51.380;10.326;2022-08-21T14:35:55;6.07;;;2.20;;
59880;SDS011;45751;51.380;10.326;2022-08-21T14:38:22;6.32;;;2.00;;
59880;SDS011;45751;51.380;10.326;2022-08-21T14:40:53;6.65;;;2.55;;
59880;SDS011;45751;51.380;10.326;2022-08-21T14:43:22;8.63;;;2.30;;
59880;SDS011;45751;51.380;10.326;2022-08-21T14:45:51;7.80;;;2.13;;
59880;SDS011;45751;51.380;10.326;2022-08-21T14:48:18;6.70;;;2.33;;
59880;SDS011;45751;51.380;10.326;2022-08-21T14:50:45;7.95;;;2.17;;
59880;SDS011;45751;51.380;10.326;2022-08-21T14:53:14;5.78;;;2.00;;
59880;SDS011;45751;51.380;10.326;2022-08-21T14:55:42;6.30;;;2.03;;
59880;SDS011;45751;51.380;10.326;2022-08-21T14:58:27;6.75;;;2.35;;
59880;SDS011;45751;51.380;10.326;2022-08-21T15:00:54;6.53;;;2.28;;
59880;SDS011;45751;51.380;10.326;2022-08-21T15:03:24;10.35;;;2.22;;
59880;SDS011;45751;51.380;10.326;2022-08-21T15:05:51;9.93;;;2.75;;
59880;SDS011;45751;51.380;10.326;2022-08-21T15:08:18;5.78;;;2.08;;
59880;SDS011;45751;51.380;10.326;2022-08-21T15:10:45;8.15;;;2.50;;
59880;SDS011;45751;51.380;10.326;2022-08-21T15:13:32;6.00;;;2.60;;
59880;SDS011;45751;51.380;10.326;2022-08-21T15:16:00;7.03;;;2.10;;
59880;SDS011;45751;51.380;10.326;2022-08-21T15:18:28;5.75;;;1.90;;
59880;SDS011;45751;51.380;10.326;2022-08-21T15:20:57;5.90;;;2.35;;
59880;SDS011;45751;51.380;10.326;2022-08-21T15:23:24;8.35;;;2.35;;
59880;SDS011;45751;51.380;10.326;2022-08-21T15:25:51;7.53;;;2.20;;
59880;SDS011;45751;51.380;10.326;2022-08-21T15:28:19;6.00;;;2.20;;
59880;SDS011;45751;51.380;10.326;2022-08-21T15:30:47;6.68;;;2.22;;
59880;SDS011;45751;51.380;10.326;2022-08-21T15:33:14;5.78;;;2.08;;
59880;SDS011;45751;51.380;10.326;2022-08-21T15:35:42;7.80;;;2.40;;
59880;SDS011;45751;51.380;10.326;2022-08-21T15:38:09;6.55;;;1.92;;
59880;SDS011;45751;51.380;10.326;2022-08-21T15:40:37;5.70;;;1.92;;
59880;SDS011;45751;51.380;10.326;2022-08-21T15:43:20;5.68;;;1.98;;
59880;SDS011;45751;51.380;10.326;2022-08-21T15:45:56;6.93;;;2.13;;
59880;SDS011;45751;51.380;10.326;2022-08-21T15:48:25;6.00;;;2.08;;
59880;SDS011;45751;51.380;10.326;2022-08-21T15:50:52;11.50;;;6.05;;
59880;SDS011;45751;51.380;10.326;2022-08-21T15:53:19;6.88;;;2.60;;
59880;SDS011;45751;51.380;10.326;2022-08-21T15:55:46;6.63;;;2.25;;
59880;SDS011;45751;51.380;10.326;2022-08-21T15:58:14;7.47;;;2.10;;
59880;SDS011;45751;51.380;10.326;2022-08-21T16:00:42;6.88;;;2.20;;
59880;SDS011;45751;51.380;10.326;2022-08-21T16:03:11;6.95;;;2.03;;
59880;SDS011;45751;51.380;10.326;2022-08-21T16:05:45;7.28;;;2.03;;
59880;SDS011;45751;51.380;10.326;2022-08-21T16:08:14;6.40;;;2.40;;
59880;SDS011;45751;51.380;10.326;2022-08-21T16:10:41;7.50;;;2.90;;
59880;SDS011;45751;51.380;10.326;2022-08-21T16:13:29;8.85;;;2.80;;